Phil Campbell, Alabama
Current Conditions -  °F | °C
As of 1:56 PM on Friday 24 Oct 2014 (Local Time) from K1M4 Reporting Station
Clear Clear  
Wind Chill: 70°   Ceiling: Unl
Heat Index: 70°   Visibility: 10mi
Dew Point: 42°   Wind: 6mph
Humidity: 36%   Direction: NA
Pressure: 30.1"   Gusts: NA
Location:  34.35°N, 87.71°W
Report Text: K1M4 241856Z AUTO VRB05KT 10SM CLR 21/06 A3010 RMK AO2 T02110055 SLP203
Loading
Personal Weather Stations






























Interactive Weather Map
Tropical Storm Tracking
New forecast layout! Learn more

10-Day Weather Forecast

Advertisements
Track Severe Weather on mobile